Time;durP1;ratioP1;P1;durP2;ratioP2;P2;SDS_P1;SDS_P2;PMS_P1;PMS_P2;Temp;Humidity;BMP_temperature;BMP_pressure;BME280_temperature;BME280_humidity;BME280_pressure;Samples;Min_cycle;Max_cycle;Signal;HPM_P1;HPM_P2
2022/11/09 00:00:20;;;;;;;18.20;12.73;;;;;;;;;;5047697;28;20207;-61
2022/11/09 00:02:46;;;;;;;18.00;12.60;;;12.90;1.00;;;;;;5040750;28;20179;-60
2022/11/09 00:05:11;;;;;;;20.20;13.63;;;12.80;1.00;;;;;;5042807;28;20926;-61
2022/11/09 00:07:37;;;;;;;17.53;14.67;;;;;;;;;;5046637;28;20199;-61
2022/11/09 00:10:03;;;;;;;15.67;12.57;;;12.80;1.00;;;;;;5046744;28;20190;-62
2022/11/09 00:12:28;;;;;;;18.00;13.23;;;12.80;1.00;;;;;;5046937;28;20463;-62
2022/11/09 00:14:54;;;;;;;14.60;12.70;;;12.80;1.00;;;;;;5047512;28;20519;-62
2022/11/09 00:17:19;;;;;;;17.97;13.70;;;12.80;1.00;;;;;;5047336;28;20229;-61
2022/11/09 00:19:45;;;;;;;17.63;13.90;;;12.80;1.00;;;;;;5044578;28;20237;-62
2022/11/09 00:22:11;;;;;;;18.53;13.47;;;12.80;1.00;;;;;;5047687;28;20589;-61
2022/11/09 00:24:36;;;;;;;15.53;13.20;;;12.70;1.00;;;;;;5046578;28;20686;-61
2022/11/09 00:27:02;;;;;;;13.43;12.13;;;12.70;1.00;;;;;;5045434;28;20270;-61
2022/11/09 00:29:27;;;;;;;17.33;14.00;;;12.70;1.00;;;;;;5047676;28;20252;-61
2022/11/09 00:31:53;;;;;;;14.30;12.43;;;12.70;1.00;;;;;;5045449;28;20246;-62
2022/11/09 00:34:18;;;;;;;15.97;13.33;;;12.70;1.00;;;;;;5043901;28;20191;-62
2022/11/09 00:36:44;;;;;;;19.80;12.90;;;12.70;1.00;;;;;;5049552;28;20211;-61
2022/11/09 00:39:09;;;;;;;16.90;13.33;;;12.70;1.00;;;;;;5050698;28;20216;-60
2022/11/09 00:41:35;;;;;;;18.60;13.53;;;12.60;1.00;;;;;;5051666;28;20648;-61
2022/11/09 00:44:01;;;;;;;16.33;13.20;;;12.60;1.00;;;;;;5050882;28;20200;-61
2022/11/09 00:46:26;;;;;;;18.17;13.23;;;12.50;1.00;;;;;;5051314;28;20236;-60
2022/11/09 00:48:54;;;;;;;16.80;12.87;;;12.50;1.00;;;;;;5051167;28;20269;-62
2022/11/09 00:51:21;;;;;;;15.40;13.53;;;12.50;1.00;;;;;;5047896;28;20195;-61
2022/11/09 00:53:47;;;;;;;17.83;14.00;;;12.40;1.00;;;;;;5049608;28;20948;-62
2022/11/09 00:56:13;;;;;;;17.27;13.60;;;12.40;1.00;;;;;;5043882;28;20562;-62
2022/11/09 00:58:39;;;;;;;15.60;13.40;;;12.40;1.00;;;;;;5051273;28;20453;-61
2022/11/09 01:01:16;;;;;;;16.80;13.83;;;12.40;1.00;;;;;;5049166;28;20515;-60
2022/11/09 01:03:43;;;;;;;15.87;13.33;;;12.40;1.00;;;;;;5049543;28;20930;-61
2022/11/09 01:06:20;;;;;;;14.17;12.63;;;12.30;1.00;;;;;;5049690;28;20455;-61
2022/11/09 01:08:47;;;;;;;19.23;13.60;;;12.30;1.00;;;;;;5050942;28;20456;-61
2022/11/09 01:11:13;;;;;;;16.63;12.83;;;12.30;1.00;;;;;;5048164;28;20452;-59
2022/11/09 01:13:39;;;;;;;18.27;14.97;;;12.30;1.00;;;;;;5051026;28;20476;-60
2022/11/09 01:16:13;;;;;;;15.00;12.77;;;12.20;1.00;;;;;;5050403;28;20557;-61
2022/11/09 01:18:39;;;;;;;20.30;14.90;;;12.20;1.00;;;;;;5050930;28;20195;-62
2022/11/09 01:21:07;;;;;;;19.00;14.03;;;12.10;1.00;;;;;;5047496;28;20447;-60
2022/11/09 01:23:33;;;;;;;18.10;14.33;;;12.20;1.00;;;;;;5050910;28;20963;-62
2022/11/09 01:26:01;;;;;;;17.83;13.90;;;12.20;1.00;;;;;;5050134;28;20478;-61
2022/11/09 01:28:27;;;;;;;18.23;14.40;;;12.20;1.00;;;;;;5045911;28;20514;-61
2022/11/09 01:30:52;;;;;;;19.37;13.67;;;12.20;1.00;;;;;;5048977;28;20545;-61
2022/11/09 01:33:19;;;;;;;18.13;14.67;;;12.20;1.00;;;;;;5048745;28;20456;-61
2022/11/09 01:35:44;;;;;;;18.57;14.00;;;12.20;1.00;;;;;;5050207;28;20507;-59
2022/11/09 01:38:10;;;;;;;20.20;15.33;;;12.10;1.00;;;;;;5049759;28;20476;-60
2022/11/09 01:40:38;;;;;;;18.47;13.67;;;12.10;1.00;;;;;;5050600;28;20185;-61
2022/11/09 01:43:15;;;;;;;17.47;14.43;;;12.00;1.00;;;;;;5049511;28;20708;-61
2022/11/09 01:45:43;;;;;;;18.17;14.27;;;12.10;1.00;;;;;;5050451;28;20441;-61
2022/11/09 01:48:14;;;;;;;17.57;13.97;;;12.10;1.00;;;;;;5043052;28;20424;-61
2022/11/09 01:51:00;;;;;;;17.40;14.60;;;12.00;1.00;;;;;;5040052;28;20453;-61
2022/11/09 01:53:36;;;;;;;19.10;14.30;;;11.90;1.00;;;;;;5046320;28;20433;-61
2022/11/09 01:56:05;;;;;;;18.27;14.93;;;11.90;1.00;;;;;;5050012;28;20481;-61
2022/11/09 01:58:38;;;;;;;21.10;16.13;;;11.90;1.00;;;;;;5049421;28;20533;-60
2022/11/09 02:01:09;;;;;;;19.30;14.83;;;11.90;1.00;;;;;;5047263;28;20527;-61
2022/11/09 02:03:39;;;;;;;15.73;13.23;;;11.80;1.00;;;;;;5049205;28;20423;-61
2022/11/09 02:06:08;;;;;;;16.70;14.10;;;11.80;1.00;;;;;;5049953;28;20503;-62
2022/11/09 02:08:35;;;;;;;21.27;15.50;;;12.00;1.00;;;;;;5047841;28;20468;-61
2022/11/09 02:11:20;;;;;;;17.03;14.20;;;12.00;1.00;;;;;;5048734;28;20933;-62
2022/11/09 02:13:52;;;;;;;18.73;14.83;;;12.00;1.00;;;;;;5047378;28;20465;-61
2022/11/09 02:16:18;;;;;;;22.47;14.37;;;11.90;1.00;;;;;;5043775;28;21103;-62
2022/11/09 02:18:55;;;;;;;19.23;15.30;;;11.90;1.00;;;;;;5046753;28;20441;-61
2022/11/09 02:21:24;;;;;;;19.20;13.67;;;11.90;1.00;;;;;;5046922;28;20440;-61
2022/11/09 02:23:50;;;;;;;18.37;14.53;;;11.90;1.00;;;;;;5049565;28;20451;-62
2022/11/09 02:26:26;;;;;;;18.43;15.23;;;11.90;1.00;;;;;;5049062;28;20435;-61
2022/11/09 02:28:54;;;;;;;22.80;15.50;;;11.90;1.00;;;;;;5047757;28;20535;-61
2022/11/09 02:31:21;;;;;;;16.93;13.17;;;11.90;1.00;;;;;;5043224;28;20886;-61
2022/11/09 02:33:50;;;;;;;19.10;13.57;;;12.00;1.00;;;;;;5047969;28;20446;-61
2022/11/09 02:36:16;;;;;;;21.30;14.70;;;11.80;1.00;;;;;;5038849;28;20927;-62
2022/11/09 02:38:41;;;;;;;18.13;14.53;;;11.80;1.00;;;;;;5044357;28;20455;-62
2022/11/09 02:41:08;;;;;;;17.00;13.83;;;11.70;1.00;;;;;;5049403;28;20458;-61
2022/11/09 02:43:35;;;;;;;21.10;16.13;;;11.80;1.00;;;;;;5048698;28;20183;-61
2022/11/09 02:46:01;;;;;;;15.70;13.13;;;11.90;1.00;;;;;;5049240;28;20939;-61
2022/11/09 02:48:27;;;;;;;23.20;15.67;;;11.80;1.00;;;;;;5043595;28;20546;-61
2022/11/09 02:50:52;;;;;;;21.10;14.90;;;11.80;1.00;;;;;;5046143;28;20510;-61
2022/11/09 02:53:18;;;;;;;16.97;13.63;;;11.80;1.00;;;;;;5048977;28;20218;-60
2022/11/09 02:55:43;;;;;;;19.00;14.47;;;11.80;1.00;;;;;;5047755;28;20210;-60
2022/11/09 02:58:09;;;;;;;18.77;15.13;;;;;;;;;;5048067;28;20186;-61
2022/11/09 03:00:35;;;;;;;19.93;14.17;;;11.80;1.00;;;;;;5048090;28;20858;-61
2022/11/09 03:03:01;;;;;;;21.77;14.80;;;11.80;1.00;;;;;;5047975;28;20513;-62
2022/11/09 03:05:26;;;;;;;22.60;15.43;;;11.80;1.00;;;;;;5047758;28;20645;-62
2022/11/09 03:07:52;;;;;;;18.33;15.10;;;11.80;1.00;;;;;;5046906;28;20225;-61
2022/11/09 03:10:18;;;;;;;19.20;15.10;;;;;;;;;;5046742;28;20273;-60
2022/11/09 03:12:43;;;;;;;18.43;13.90;;;11.60;1.00;;;;;;5046487;28;20549;-60
2022/11/09 03:15:09;;;;;;;20.40;15.27;;;11.60;1.00;;;;;;5045503;28;20835;-60
2022/11/09 03:17:35;;;;;;;21.63;14.70;;;11.60;1.00;;;;;;5048860;28;20539;-62
2022/11/09 03:20:01;;;;;;;16.60;13.93;;;11.60;1.00;;;;;;5046177;28;20241;-60
2022/11/09 03:22:27;;;;;;;18.13;14.80;;;11.60;1.00;;;;;;5048669;28;20838;-60
2022/11/09 03:24:53;;;;;;;20.17;15.33;;;;;;;;;;5046340;28;20269;-59
2022/11/09 03:27:19;;;;;;;20.00;15.07;;;11.50;1.00;;;;;;5045412;28;20551;-61
2022/11/09 03:29:44;;;;;;;18.43;14.27;;;11.40;1.00;;;;;;5048677;28;20454;-61
2022/11/09 03:32:10;;;;;;;19.40;15.17;;;11.40;1.00;;;;;;5047022;28;20218;-62
2022/11/09 03:34:36;;;;;;;15.83;13.70;;;11.40;1.00;;;;;;5046475;28;20198;-60
2022/11/09 03:37:01;;;;;;;23.50;14.90;;;11.40;1.00;;;;;;5046813;28;20206;-61
2022/11/09 03:39:27;;;;;;;17.23;13.37;;;11.50;1.00;;;;;;5048178;28;20224;-60
2022/11/09 03:41:52;;;;;;;19.23;13.07;;;11.40;1.00;;;;;;5048222;28;20190;-61
2022/11/09 03:44:19;;;;;;;18.90;13.80;;;11.40;1.00;;;;;;5043577;28;20703;-61
2022/11/09 03:46:45;;;;;;;17.00;13.63;;;11.40;1.00;;;;;;5048069;28;20191;-61
2022/11/09 03:49:10;;;;;;;17.83;13.83;;;11.30;1.00;;;;;;5048333;28;20526;-61
2022/11/09 03:51:36;;;;;;;18.50;14.73;;;11.40;1.00;;;;;;5047485;28;20191;-61
2022/11/09 03:54:02;;;;;;;23.43;15.13;;;11.30;1.00;;;;;;5047750;28;20275;-60
2022/11/09 03:56:27;;;;;;;19.63;14.97;;;11.40;1.00;;;;;;5047266;28;20299;-62
2022/11/09 03:58:53;;;;;;;19.70;14.73;;;11.40;1.00;;;;;;5047833;28;20194;-60
2022/11/09 04:01:19;;;;;;;24.17;14.93;;;11.40;1.00;;;;;;5048286;28;20992;-62
2022/11/09 04:03:44;;;;;;;19.93;14.03;;;11.50;1.00;;;;;;5047125;28;20561;-60
2022/11/09 04:06:10;;;;;;;20.07;13.50;;;11.50;1.00;;;;;;5047515;28;20265;-61
2022/11/09 04:08:35;;;;;;;16.17;13.80;;;11.40;1.00;;;;;;5041547;28;20197;-60
2022/11/09 04:11:01;;;;;;;15.93;12.80;;;11.50;1.00;;;;;;5046634;28;20249;-61
2022/11/09 04:13:26;;;;;;;20.70;12.47;;;11.40;1.00;;;;;;5047714;28;20231;-60
2022/11/09 04:15:52;;;;;;;19.47;13.63;;;11.30;1.00;;;;;;5047310;28;20267;-61
2022/11/09 04:18:18;;;;;;;17.23;13.93;;;;;;;;;;5047509;28;20229;-61
2022/11/09 04:20:43;;;;;;;17.73;13.73;;;11.30;1.00;;;;;;5047295;28;20182;-61
2022/11/09 04:23:11;;;;;;;17.97;12.50;;;11.30;1.00;;;;;;5046583;28;20504;-60
2022/11/09 04:25:39;;;;;;;17.97;14.23;;;11.30;1.00;;;;;;5046183;28;20202;-61
2022/11/09 04:28:06;;;;;;;17.73;13.93;;;11.20;1.00;;;;;;5047553;28;20944;-61
2022/11/09 04:30:34;;;;;;;19.03;14.17;;;11.20;1.00;;;;;;5045068;28;20428;-60
2022/11/09 04:33:00;;;;;;;16.20;13.07;;;11.20;1.00;;;;;;5046671;28;20469;-61
2022/11/09 04:35:27;;;;;;;16.43;14.43;;;11.30;1.00;;;;;;5046448;28;20481;-61
2022/11/09 04:37:55;;;;;;;17.37;13.27;;;11.20;1.00;;;;;;5047398;28;20426;-60
2022/11/09 04:40:22;;;;;;;19.07;13.50;;;11.30;1.00;;;;;;5044664;28;20445;-61
2022/11/09 04:42:47;;;;;;;16.40;13.80;;;11.30;1.00;;;;;;5047736;28;20544;-61
2022/11/09 04:45:13;;;;;;;19.77;14.23;;;11.30;1.00;;;;;;5047240;28;20536;-60
2022/11/09 04:47:38;;;;;;;17.13;14.43;;;11.20;1.00;;;;;;5044263;28;20309;-61
2022/11/09 04:50:04;;;;;;;21.13;14.17;;;11.40;1.00;;;;;;5043970;28;20199;-61
2022/11/09 04:52:30;;;;;;;20.00;13.37;;;11.40;1.00;;;;;;5043461;28;20199;-60
2022/11/09 04:54:56;;;;;;;18.03;13.57;;;11.40;1.00;;;;;;5044554;28;20431;-61
2022/11/09 04:57:21;;;;;;;16.67;12.87;;;11.50;1.00;;;;;;5047468;28;20250;-61
2022/11/09 04:59:47;;;;;;;17.50;14.40;;;11.40;1.00;;;;;;5043176;28;20213;-60
2022/11/09 05:02:12;;;;;;;17.73;13.10;;;11.50;1.00;;;;;;5039493;28;20188;-61
2022/11/09 05:04:38;;;;;;;17.80;13.93;;;11.60;1.00;;;;;;5043930;28;20195;-61
2022/11/09 05:07:04;;;;;;;16.50;13.90;;;11.50;1.00;;;;;;5040791;28;20188;-61
2022/11/09 05:09:29;;;;;;;16.57;13.63;;;11.50;1.00;;;;;;5045377;28;20189;-60
2022/11/09 05:11:55;;;;;;;19.20;14.23;;;;;;;;;;5045466;28;20188;-61
2022/11/09 05:14:21;;;;;;;18.40;12.80;;;11.50;1.00;;;;;;5047245;28;20230;-61
2022/11/09 05:16:47;;;;;;;17.10;12.33;;;;;;;;;;5046070;28;20543;-62
2022/11/09 05:19:12;;;;;;;18.50;13.50;;;11.50;1.00;;;;;;5044649;28;20641;-61
2022/11/09 05:21:38;;;;;;;20.90;13.83;;;11.50;1.00;;;;;;5045108;28;20453;-61
2022/11/09 05:24:04;;;;;;;19.13;12.70;;;11.50;1.00;;;;;;5046374;28;20191;-61
2022/11/09 05:26:35;;;;;;;15.73;13.17;;;11.60;1.00;;;;;;5048442;28;20561;-62
2022/11/09 05:29:03;;;;;;;18.53;13.57;;;11.50;1.00;;;;;;5048817;28;20191;-62
2022/11/09 05:31:29;;;;;;;17.27;12.27;;;11.50;1.00;;;;;;5049031;28;20441;-61
2022/11/09 05:33:55;;;;;;;14.43;12.40;;;11.60;1.00;;;;;;5050388;28;20461;-61
2022/11/09 05:36:21;;;;;;;16.47;12.27;;;11.60;1.00;;;;;;5049541;28;20476;-60
2022/11/09 05:38:47;;;;;;;16.40;12.43;;;11.60;1.00;;;;;;5050396;28;20482;-61
2022/11/09 05:41:13;;;;;;;16.27;12.70;;;11.50;1.00;;;;;;5050023;28;20478;-61
2022/11/09 05:43:39;;;;;;;16.77;13.30;;;11.50;1.00;;;;;;5049343;28;20412;-60
2022/11/09 05:46:05;;;;;;;17.10;13.27;;;11.50;1.00;;;;;;5045013;28;20191;-61
2022/11/09 05:48:30;;;;;;;18.70;14.73;;;11.50;1.00;;;;;;5047238;28;20191;-60
2022/11/09 05:51:00;;;;;;;18.63;12.83;;;11.50;1.00;;;;;;5041799;28;20191;-61
2022/11/09 05:53:25;;;;;;;20.67;13.90;;;11.50;1.00;;;;;;5047080;28;20750;-60
2022/11/09 05:55:51;;;;;;;20.13;14.83;;;11.60;1.00;;;;;;5046599;28;20541;-61
2022/11/09 05:58:16;;;;;;;17.97;13.03;;;11.70;1.00;;;;;;5047182;28;20198;-61
2022/11/09 06:00:42;;;;;;;20.73;14.00;;;11.70;1.00;;;;;;5049243;28;20286;-61
2022/11/09 06:03:09;;;;;;;18.10;13.00;;;11.70;1.00;;;;;;5049960;28;20656;-62
2022/11/09 06:05:37;;;;;;;18.10;12.80;;;11.70;1.00;;;;;;5049392;28;20198;-62
2022/11/09 06:08:04;;;;;;;15.90;12.80;;;11.70;1.00;;;;;;5048875;28;20456;-61
2022/11/09 06:10:29;;;;;;;17.73;13.80;;;11.70;1.00;;;;;;5048798;28;20519;-60
2022/11/09 06:12:55;;;;;;;18.10;13.83;;;11.80;1.00;;;;;;5046549;28;20470;-61
2022/11/09 06:15:21;;;;;;;15.40;12.80;;;11.80;1.00;;;;;;5047749;28;20210;-62
2022/11/09 06:17:54;;;;;;;17.43;13.20;;;11.70;1.00;;;;;;5045224;28;20187;-62
2022/11/09 06:20:20;;;;;;;18.33;13.40;;;11.60;1.00;;;;;;5046605;28;20199;-61
2022/11/09 06:22:53;;;;;;;16.33;12.10;;;11.60;1.00;;;;;;5047840;28;20958;-62
2022/11/09 06:25:20;;;;;;;17.23;12.77;;;11.60;1.00;;;;;;5048884;28;20424;-61
2022/11/09 06:27:45;;;;;;;19.77;13.13;;;11.70;1.00;;;;;;5046483;28;20527;-61
2022/11/09 06:30:11;;;;;;;15.53;12.20;;;11.70;1.00;;;;;;5048347;28;20540;-61
2022/11/09 06:32:37;;;;;;;16.03;12.77;;;;;;;;;;5049068;28;20591;-61
2022/11/09 06:35:03;;;;;;;15.17;13.53;;;11.70;1.00;;;;;;5048604;28;20474;-62
2022/11/09 06:37:29;;;;;;;14.13;12.63;;;;;;;;;;5047856;28;20438;-61
2022/11/09 06:39:55;;;;;;;16.83;13.03;;;;;;;;;;5046116;28;20453;-61
2022/11/09 06:42:20;;;;;;;14.57;11.93;;;11.80;1.00;;;;;;5047958;28;20432;-61
2022/11/09 06:44:46;;;;;;;16.37;12.03;;;11.70;1.00;;;;;;5048716;28;20450;-63
2022/11/09 06:47:11;;;;;;;17.33;12.47;;;11.70;1.00;;;;;;5045428;28;20290;-62
2022/11/09 06:49:37;;;;;;;14.37;12.40;;;11.70;1.00;;;;;;5046093;28;20285;-62
2022/11/09 06:52:03;;;;;;;14.33;12.10;;;11.80;1.00;;;;;;5048442;28;20247;-61
2022/11/09 06:54:29;;;;;;;16.53;13.03;;;;;;;;;;5047494;28;20221;-61
2022/11/09 06:56:54;;;;;;;18.33;12.80;;;11.90;1.00;;;;;;5048725;28;20204;-61
2022/11/09 06:59:21;;;;;;;15.43;12.90;;;11.90;1.00;;;;;;5047061;28;20448;-61
2022/11/09 07:01:46;;;;;;;18.00;12.47;;;11.90;1.00;;;;;;5047253;28;20766;-62
2022/11/09 07:04:13;;;;;;;17.70;12.40;;;11.90;1.00;;;;;;5044526;28;20424;-61
2022/11/09 07:06:40;;;;;;;21.20;14.60;;;11.90;1.00;;;;;;5043819;28;20205;-60
2022/11/09 07:09:06;;;;;;;12.80;11.00;;;;;;;;;;5040809;28;20441;-61
2022/11/09 07:11:32;;;;;;;17.20;12.97;;;;;;;;;;5048405;28;20471;-61
2022/11/09 07:13:57;;;;;;;19.10;12.90;;;11.90;1.00;;;;;;5046898;28;20473;-61
2022/11/09 07:16:23;;;;;;;17.67;12.60;;;;;;;;;;5047997;28;21027;-60
2022/11/09 07:18:49;;;;;;;16.53;12.17;;;;;;;;;;5047916;28;20202;-62
2022/11/09 07:21:15;;;;;;;15.90;11.93;;;11.90;1.00;;;;;;5045764;28;20428;-62
2022/11/09 07:23:42;;;;;;;13.73;11.23;;;12.00;1.00;;;;;;5048017;28;20446;-61
2022/11/09 07:26:07;;;;;;;18.23;12.20;;;12.00;1.00;;;;;;5046741;28;20209;-61
2022/11/09 07:28:33;;;;;;;14.70;12.73;;;12.00;1.00;;;;;;5046883;28;20420;-62
2022/11/09 07:30:59;;;;;;;14.20;11.93;;;12.00;1.00;;;;;;5046698;28;20221;-62
2022/11/09 07:33:25;;;;;;;15.33;11.60;;;12.10;1.00;;;;;;5044756;28;20433;-61
2022/11/09 07:35:51;;;;;;;15.90;12.30;;;12.10;1.00;;;;;;5046255;28;20295;-61
2022/11/09 07:38:18;;;;;;;14.90;11.57;;;12.10;1.00;;;;;;5048187;28;20480;-61
2022/11/09 07:40:44;;;;;;;15.30;10.93;;;12.20;1.00;;;;;;5047736;28;20191;-61
2022/11/09 07:43:11;;;;;;;16.30;11.73;;;12.30;1.00;;;;;;5046478;28;20924;-61
2022/11/09 07:45:37;;;;;;;18.00;12.20;;;12.30;1.00;;;;;;5046503;28;20964;-60
2022/11/09 07:48:06;;;;;;;17.13;12.60;;;12.40;1.00;;;;;;5047814;28;20431;-61
2022/11/09 07:50:33;;;;;;;16.10;12.27;;;12.40;1.00;;;;;;5045897;28;20203;-62
2022/11/09 07:53:00;;;;;;;16.80;12.90;;;12.40;1.00;;;;;;5046089;28;20818;-61
2022/11/09 07:55:27;;;;;;;14.60;11.47;;;12.40;1.00;;;;;;5045438;28;21700;-61
2022/11/09 07:58:00;;;;;;;17.10;12.40;;;12.40;1.00;;;;;;5045724;28;20478;-61
2022/11/09 08:00:28;;;;;;;20.00;12.60;;;12.40;1.00;;;;;;5045740;28;20487;-61
2022/11/09 08:02:54;;;;;;;16.10;12.93;;;12.40;1.00;;;;;;5044038;28;20452;-61
2022/11/09 08:05:20;;;;;;;15.93;12.63;;;12.30;1.00;;;;;;5045117;28;20505;-62
2022/11/09 08:07:46;;;;;;;17.73;13.50;;;12.40;1.00;;;;;;5041571;28;20451;-61
2022/11/09 08:10:12;;;;;;;17.10;12.60;;;12.40;1.00;;;;;;5047392;28;20922;-61
2022/11/09 08:12:38;;;;;;;14.03;11.97;;;12.40;1.00;;;;;;5047440;28;20290;-61
2022/11/09 08:15:05;;;;;;;16.90;12.93;;;12.40;1.00;;;;;;5046709;28;20465;-61
2022/11/09 08:17:31;;;;;;;16.50;13.83;;;12.50;1.00;;;;;;5042355;28;20183;-63
2022/11/09 08:19:57;;;;;;;18.43;13.47;;;;;;;;;;5045966;28;20438;-61
2022/11/09 08:22:22;;;;;;;19.40;15.13;;;12.60;1.00;;;;;;5046996;28;20442;-61
2022/11/09 08:24:48;;;;;;;15.80;13.73;;;12.40;1.00;;;;;;5045901;28;20480;-63
2022/11/09 08:27:14;;;;;;;18.77;13.20;;;12.60;1.00;;;;;;5043027;28;20251;-62
2022/11/09 08:29:39;;;;;;;17.63;13.97;;;12.60;1.00;;;;;;5043528;28;20195;-62
2022/11/09 08:32:05;;;;;;;14.67;12.63;;;;;;;;;;5046591;28;20344;-62
2022/11/09 08:34:31;;;;;;;16.37;12.93;;;12.50;1.00;;;;;;5047836;28;20191;-55
2022/11/09 08:36:59;;;;;;;17.17;12.03;;;12.50;1.00;;;;;;5047054;28;20549;-55
2022/11/09 08:39:25;;;;;;;13.37;11.80;;;12.50;1.00;;;;;;5046682;28;20211;-56
2022/11/09 08:41:50;;;;;;;14.73;12.70;;;12.50;1.00;;;;;;5047214;28;20910;-56
2022/11/09 08:44:16;;;;;;;16.10;12.77;;;;;;;;;;5045783;28;20228;-56
2022/11/09 08:46:42;;;;;;;13.83;11.40;;;12.60;1.00;;;;;;5044590;28;20231;-57
2022/11/09 08:49:08;;;;;;;14.47;11.90;;;12.70;1.00;;;;;;5045685;28;20463;-55
2022/11/09 08:51:33;;;;;;;15.17;12.27;;;12.70;1.00;;;;;;5043779;28;20216;-54
2022/11/09 08:53:59;;;;;;;16.30;13.03;;;12.80;1.00;;;;;;5045099;28;20953;-56
2022/11/09 08:56:25;;;;;;;16.00;12.10;;;;;;;;;;5044806;28;20282;-56
2022/11/09 08:58:50;;;;;;;17.50;13.30;;;13.00;1.00;;;;;;5048360;28;20190;-55
2022/11/09 09:01:16;;;;;;;13.50;11.83;;;;;;;;;;5050957;28;20929;-55
2022/11/09 09:03:42;;;;;;;17.83;13.17;;;13.20;1.00;;;;;;5050064;28;20318;-55
2022/11/09 09:06:08;;;;;;;14.67;12.30;;;13.00;1.00;;;;;;5050883;28;20543;-55
2022/11/09 09:08:34;;;;;;;15.03;12.87;;;;;;;;;;5050650;28;20202;-56
2022/11/09 09:11:03;;;;;;;16.10;12.33;;;13.10;1.00;;;;;;5044273;28;20194;-56
2022/11/09 09:13:30;;;;;;;15.37;12.30;;;13.20;1.00;;;;;;5050512;28;20474;-56
2022/11/09 09:15:56;;;;;;;15.33;12.10;;;;;;;;;;5049643;28;20484;-55
2022/11/09 09:18:22;;;;;;;16.20;12.63;;;13.30;1.00;;;;;;5049684;28;20982;-56
2022/11/09 09:20:48;;;;;;;16.03;11.43;;;;;;;;;;5048994;28;20475;-55
2022/11/09 09:23:15;;;;;;;16.57;13.57;;;13.20;1.00;;;;;;5047854;28;20525;-57
2022/11/09 09:25:41;;;;;;;13.73;11.47;;;13.10;1.00;;;;;;5047944;28;20810;-55
2022/11/09 09:28:07;;;;;;;16.97;11.27;;;13.20;1.00;;;;;;5044888;28;20428;-56
2022/11/09 09:30:33;;;;;;;11.83;10.60;;;13.20;1.00;;;;;;5050159;28;20452;-55
2022/11/09 09:32:59;;;;;;;17.80;12.50;;;;;;;;;;5050457;28;20191;-55
2022/11/09 09:35:26;;;;;;;15.57;12.37;;;13.20;1.00;;;;;;5047706;28;20213;-57
2022/11/09 09:37:52;;;;;;;13.17;11.63;;;13.20;1.00;;;;;;5048897;28;20453;-56
2022/11/09 09:40:41;;;;;;;16.80;12.13;;;;;;;;;;5044403;28;20947;-55
2022/11/09 09:43:14;;;;;;;16.33;11.83;;;13.20;1.00;;;;;;5037218;28;20250;-56
2022/11/09 09:45:47;;;;;;;16.93;11.80;;;13.20;1.00;;;;;;5047282;28;20442;-56
2022/11/09 09:48:38;;;;;;;20.60;12.10;;;13.10;1.00;;;;;;5049690;28;20442;-56
2022/11/09 09:51:21;;;;;;;10.80;9.70;;;13.20;1.00;;;;;;5049530;28;20983;-57
2022/11/09 09:53:58;;;;;;;12.00;10.27;;;13.20;1.00;;;;;;5048936;28;20494;-56
2022/11/09 09:56:33;;;;;;;13.70;11.17;;;13.20;1.00;;;;;;5050555;28;20533;-56
2022/11/09 09:59:08;;;;;;;12.90;10.87;;;13.30;1.00;;;;;;5046424;28;20454;-56
2022/11/09 10:01:39;;;;;;;12.50;10.60;;;13.30;1.00;;;;;;5048800;28;20464;-55
2022/11/09 10:04:44;;;;;;;14.90;10.20;;;13.30;1.00;;;;;;5047914;28;20413;-56
2022/11/09 10:07:32;;;;;;;12.20;10.90;;;13.30;1.00;;;;;;5046515;28;20513;-57
2022/11/09 10:10:27;;;;;;;13.23;10.43;;;13.30;1.00;;;;;;5048126;28;20427;-56
2022/11/09 10:13:07;;;;;;;10.13;8.87;;;13.30;1.00;;;;;;5048721;28;20481;-55
2022/11/09 10:15:39;;;;;;;13.67;10.10;;;13.30;1.00;;;;;;5046578;28;20448;-55
2022/11/09 10:18:16;;;;;;;12.20;10.07;;;13.30;1.00;;;;;;5046566;28;20439;-55
2022/11/09 10:21:00;;;;;;;12.73;10.03;;;13.40;1.00;;;;;;5047698;28;20921;-55
2022/11/09 10:24:01;;;;;;;12.50;9.43;;;13.40;1.00;;;;;;5049558;28;20570;-55
2022/11/09 10:26:40;;;;;;;12.27;9.27;;;13.50;1.00;;;;;;5007641;28;20456;-56
2022/11/09 10:29:34;;;;;;;10.20;9.03;;;13.40;1.00;;;;;;5038775;28;21188;-57
2022/11/09 10:32:15;;;;;;;10.63;8.20;;;13.50;1.00;;;;;;5048561;28;20533;-55
2022/11/09 10:34:54;;;;;;;12.53;8.90;;;13.50;1.00;;;;;;5047889;28;20445;-55
2022/11/09 10:37:38;;;;;;;11.60;8.93;;;13.60;1.00;;;;;;5048167;28;20474;-55
2022/11/09 10:40:19;;;;;;;11.80;9.20;;;13.50;1.00;;;;;;5048130;28;20428;-55
2022/11/09 10:42:49;;;;;;;9.67;8.77;;;13.70;1.00;;;;;;5047204;28;20801;-55
2022/11/09 10:45:36;;;;;;;9.83;8.33;;;13.60;1.00;;;;;;5046070;28;20811;-55
2022/11/09 10:48:04;;;;;;;11.30;9.03;;;13.60;1.00;;;;;;5045957;28;20503;-55
2022/11/09 10:50:54;;;;;;;11.93;9.30;;;13.60;1.00;;;;;;5045386;28;20535;-56
2022/11/09 10:53:21;;;;;;;12.13;9.90;;;13.70;1.00;;;;;;5043877;28;20533;-57
2022/11/09 10:56:14;;;;;;;10.63;9.47;;;13.70;1.00;;;;;;5047824;28;20870;-55
2022/11/09 10:58:49;;;;;;;11.40;9.70;;;13.60;1.00;;;;;;5047675;28;20519;-55
2022/11/09 11:01:16;;;;;;;13.10;9.80;;;13.70;1.00;;;;;;5048560;28;20441;-55
2022/11/09 11:03:42;;;;;;;13.40;9.93;;;13.80;1.00;;;;;;5045919;28;20992;-55
2022/11/09 11:06:20;;;;;;;10.03;9.03;;;13.70;1.00;;;;;;5048994;28;20437;-56
2022/11/09 11:08:50;;;;;;;11.50;9.73;;;13.80;1.00;;;;;;5045889;28;20416;-55
2022/11/09 11:11:16;;;;;;;10.63;9.57;;;;;;;;;;5044892;28;20439;-56
2022/11/09 11:13:42;;;;;;;11.90;9.63;;;13.70;1.00;;;;;;5044929;28;20452;-55
2022/11/09 11:16:36;;;;;;;13.27;10.57;;;13.70;1.00;;;;;;5047968;28;20466;-55
2022/11/09 11:19:03;;;;;;;11.30;10.10;;;13.60;1.00;;;;;;5043200;28;20741;-55
2022/11/09 11:21:29;;;;;;;12.00;10.50;;;13.70;1.00;;;;;;5047889;28;20444;-55
2022/11/09 11:24:12;;;;;;;10.93;9.40;;;13.80;1.00;;;;;;5047083;28;20494;-55
2022/11/09 11:27:00;;;;;;;10.90;9.80;;;13.80;1.00;;;;;;5047790;28;20473;-57
2022/11/09 11:29:47;;;;;;;13.60;9.70;;;13.90;1.00;;;;;;5043902;28;20421;-56
2022/11/09 11:32:19;;;;;;;12.13;10.50;;;13.90;1.00;;;;;;5046452;28;21659;-57
2022/11/09 11:34:45;;;;;;;11.20;9.57;;;14.00;1.00;;;;;;5046321;28;20468;-55
2022/11/09 11:37:38;;;;;;;11.03;10.03;;;14.10;1.00;;;;;;5045487;28;20459;-56
2022/11/09 11:40:17;;;;;;;11.57;10.37;;;14.00;1.00;;;;;;5046870;28;20432;-55
2022/11/09 11:43:11;;;;;;;13.70;10.57;;;14.00;1.00;;;;;;5045958;28;20455;-56
2022/11/09 11:45:52;;;;;;;11.47;9.27;;;14.00;1.00;;;;;;5045148;28;20424;-55
2022/11/09 11:48:34;;;;;;;12.30;9.13;;;14.00;1.00;;;;;;5046783;28;20479;-56
2022/11/09 11:51:15;;;;;;;14.10;9.40;;;13.90;1.00;;;;;;5046176;28;20512;-56
2022/11/09 11:54:07;;;;;;;11.53;9.23;;;14.00;1.00;;;;;;5041794;28;20448;-56
2022/11/09 11:56:38;;;;;;;13.13;10.50;;;14.00;1.00;;;;;;5034651;28;20967;-55
2022/11/09 11:59:37;;;;;;;12.73;9.30;;;14.10;1.00;;;;;;5044991;28;20446;-55
2022/11/09 12:02:39;;;;;;;14.03;10.47;;;14.10;1.00;;;;;;5045139;28;20449;-56
2022/11/09 12:05:35;;;;;;;11.07;9.90;;;14.10;1.00;;;;;;5040236;28;20425;-57
2022/11/09 12:08:18;;;;;;;15.10;9.90;;;14.10;1.00;;;;;;5045927;28;20450;-55
2022/11/09 12:10:59;;;;;;;11.47;9.53;;;14.10;1.00;;;;;;5046860;28;20441;-56
2022/11/09 12:13:44;;;;;;;12.20;9.80;;;14.00;1.00;;;;;;5045529;28;20790;-55
2022/11/09 12:16:16;;;;;;;11.77;10.33;;;13.90;1.00;;;;;;5044025;28;20567;-56
2022/11/09 12:19:11;;;;;;;12.53;10.40;;;13.80;1.00;;;;;;5046630;28;20970;-55
2022/11/09 12:22:00;;;;;;;11.63;10.03;;;13.80;1.00;;;;;;5046835;28;20438;-56
2022/11/09 12:24:52;;;;;;;13.43;10.50;;;13.90;1.00;;;;;;5046697;28;20411;-56
2022/11/09 12:27:42;;;;;;;12.23;10.90;;;13.90;1.00;;;;;;5044981;28;20428;-56
2022/11/09 12:30:23;;;;;;;11.53;10.17;;;13.80;1.00;;;;;;5046887;28;20429;-56
2022/11/09 12:33:13;;;;;;;12.43;10.83;;;13.70;1.00;;;;;;5048915;28;20426;-56
2022/11/09 12:35:44;;;;;;;13.03;11.40;;;13.60;1.00;;;;;;5050060;28;20484;-56
2022/11/09 12:38:35;;;;;;;12.17;10.83;;;13.60;1.00;;;;;;5049472;28;20499;-55
2022/11/09 12:41:09;;;;;;;14.20;11.80;;;13.40;1.00;;;;;;5049482;28;20921;-55
2022/11/09 12:43:55;;;;;;;15.43;12.03;;;13.40;1.00;;;;;;5047778;28;20532;-56
2022/11/09 12:46:26;;;;;;;13.00;11.53;;;13.40;1.00;;;;;;5050673;28;20426;-54
2022/11/09 12:48:54;;;;;;;14.20;10.80;;;13.50;1.00;;;;;;5049681;28;20438;-55
2022/11/09 12:51:20;;;;;;;14.77;11.77;;;13.30;1.00;;;;;;5047042;28;20471;-57
2022/11/09 12:53:45;;;;;;;14.00;12.57;;;13.40;1.00;;;;;;5047218;28;20520;-55
2022/11/09 12:56:50;;;;;;;16.20;12.20;;;13.40;1.00;;;;;;5045940;28;21001;-56
2022/11/09 12:59:25;;;;;;;14.73;12.63;;;13.60;1.00;;;;;;5039203;28;20616;-55